Time,TemperatureF,DewpointF,PressureIn,WindDirection,WindDirectionDegrees,WindSpeedMPH,WindSpeedGustMPH,Humidity,HourlyPrecipIn,Conditions,Clouds,dailyrainin,SoftwareType,DateUTC
2013-03-10 00:14:00,56.1,49.0,29.99,SE,135,0.0,-999.0,77,-99.99,,,0.00,Acu-Link.com,2013-03-10 05:14:00,
2013-03-10 00:29:00,56.3,49.5,29.99,East,90,0.0,-999.0,78,-99.99,,,0.00,Acu-Link.com,2013-03-10 05:29:00,
2013-03-10 00:45:00,56.1,49.7,29.99,WNW,292,0.0,-999.0,79,-99.99,,,0.00,Acu-Link.com,2013-03-10 05:45:00,
2013-03-10 01:00:00,55.9,49.8,29.99,WNW,292,0.0,-999.0,80,-99.99,,,0.00,Acu-Link.com,2013-03-10 06:00:00,
2013-03-10 01:15:00,55.9,50.2,29.98,ENE,67,0.0,-999.0,81,-99.99,,,0.00,Acu-Link.com,2013-03-10 06:15:00,
2013-03-10 01:30:00,55.8,50.1,29.98,North,0,0.0,-999.0,81,-99.99,,,0.00,Acu-Link.com,2013-03-10 06:30:00,
2013-03-10 01:46:00,55.4,50.0,29.98,East,90,0.0,-999.0,82,-99.99,,,0.00,Acu-Link.com,2013-03-10 06:46:00,
2013-03-10 03:01:00,55.2,50.1,29.97,ESE,112,0.0,-999.0,83,-99.99,,,0.00,Acu-Link.com,2013-03-10 07:01:00,
2013-03-10 03:16:00,55.0,49.9,29.96,WNW,292,0.0,-999.0,83,-99.99,,,0.00,Acu-Link.com,2013-03-10 07:16:00,
2013-03-10 03:31:00,54.9,50.5,29.96,SE,135,1.1,-999.0,85,-99.99,,,0.00,Acu-Link.com,2013-03-10 07:31:00,
2013-03-10 03:47:00,54.3,50.8,29.95,South,180,0.0,-999.0,88,-99.99,,,0.00,Acu-Link.com,2013-03-10 07:47:00,
2013-03-10 04:02:00,54.5,51.0,29.96,East,90,0.0,-999.0,88,-99.99,,,0.00,Acu-Link.com,2013-03-10 08:02:00,
2013-03-10 04:17:00,54.5,51.3,29.95,ESE,112,0.0,-999.0,89,-99.99,,,0.00,Acu-Link.com,2013-03-10 08:17:00,
2013-03-10 04:33:00,54.1,50.9,29.96,ESE,112,0.0,-999.0,89,-99.99,,,0.00,Acu-Link.com,2013-03-10 08:33:00,
2013-03-10 04:48:00,53.8,51.5,29.96,SE,135,0.0,-999.0,92,-99.99,,,0.00,Acu-Link.com,2013-03-10 08:48:00,
2013-03-10 05:03:00,54.1,52.1,29.96,WSW,247,0.0,-999.0,93,-99.99,,,0.00,Acu-Link.com,2013-03-10 09:03:00,
2013-03-10 05:19:00,53.8,51.8,29.95,NW,315,0.0,-999.0,93,-99.99,,,0.00,Acu-Link.com,2013-03-10 09:19:00,
2013-03-10 05:34:00,54.0,52.0,29.95,ENE,67,0.0,-999.0,93,-99.99,,,0.00,Acu-Link.com,2013-03-10 09:34:00,
2013-03-10 05:49:00,53.2,50.9,29.96,NW,315,1.7,-999.0,92,-99.99,,,0.00,Acu-Link.com,2013-03-10 09:49:00,
2013-03-10 06:04:00,53.1,51.1,29.96,SSE,157,0.0,-999.0,93,-99.99,,,0.00,Acu-Link.com,2013-03-10 10:04:00,
2013-03-10 06:20:00,53.1,51.1,29.96,West,270,0.0,-999.0,93,-99.99,,,0.00,Acu-Link.com,2013-03-10 10:20:00,
2013-03-10 06:35:00,53.4,51.1,29.96,North,0,0.0,-999.0,92,-99.99,,,0.00,Acu-Link.com,2013-03-10 10:35:00,
2013-03-10 06:50:00,53.8,51.8,29.97,WNW,292,0.0,-999.0,93,-99.99,,,0.00,Acu-Link.com,2013-03-10 10:50:00,
2013-03-10 07:06:00,54.0,52.0,29.97,NW,315,0.0,-999.0,93,-99.99,,,0.00,Acu-Link.com,2013-03-10 11:06:00,
2013-03-10 07:21:00,53.8,51.5,29.97,WNW,292,0.0,-999.0,92,-99.99,,,0.00,Acu-Link.com,2013-03-10 11:21:00,
2013-03-10 07:36:00,54.3,52.3,29.97,WSW,247,0.0,-999.0,93,-99.99,,,0.00,Acu-Link.com,2013-03-10 11:36:00,
2013-03-10 07:52:00,54.5,52.2,29.98,NNW,337,0.0,-999.0,92,-99.99,,,0.00,Acu-Link.com,2013-03-10 11:52:00,
2013-03-10 08:07:00,55.0,52.7,29.98,West,270,0.0,-999.0,92,-99.99,,,0.00,Acu-Link.com,2013-03-10 12:07:00,
2013-03-10 08:22:00,55.8,53.2,29.98,NE,45,1.1,-999.0,91,-99.99,,,0.00,Acu-Link.com,2013-03-10 12:22:00,
2013-03-10 08:37:00,57.0,53.8,29.98,WNW,292,0.0,-999.0,89,-99.99,,,0.00,Acu-Link.com,2013-03-10 12:37:00,
2013-03-10 08:52:00,58.8,54.9,29.99,NW,315,0.0,-999.0,87,-99.99,,,0.00,Acu-Link.com,2013-03-10 12:52:00,
2013-03-10 09:08:00,61.0,56.1,29.99,NNW,337,0.0,-999.0,84,-99.99,,,0.00,Acu-Link.com,2013-03-10 13:08:00,
2013-03-10 09:23:00,63.9,56.9,30.00,NW,315,0.0,-999.0,78,-99.99,,,0.00,Acu-Link.com,2013-03-10 13:23:00,
2013-03-10 09:38:00,67.1,56.6,30.00,SW,225,2.7,-999.0,69,-99.99,,,0.00,Acu-Link.com,2013-03-10 13:38:00,
2013-03-10 09:54:00,67.5,56.1,30.00,NE,45,2.7,-999.0,67,-99.99,,,0.00,Acu-Link.com,2013-03-10 13:54:00,
2013-03-10 10:09:00,69.1,56.8,30.00,South,180,1.7,-999.0,65,-99.99,,,0.00,Acu-Link.com,2013-03-10 14:09:00,
2013-03-10 10:24:00,70.5,55.0,30.00,South,180,0.0,-999.0,58,-99.99,,,0.00,Acu-Link.com,2013-03-10 14:24:00,
2013-03-10 10:40:00,72.5,54.9,30.00,ESE,112,2.7,-999.0,54,-99.99,,,0.00,Acu-Link.com,2013-03-10 14:40:00,
2013-03-10 10:55:00,73.0,54.3,30.00,SW,225,4.2,-999.0,52,-99.99,,,0.00,Acu-Link.com,2013-03-10 14:55:00,
2013-03-10 11:10:00,74.1,56.4,30.00,ESE,112,6.3,-999.0,54,-99.99,,,0.00,Acu-Link.com,2013-03-10 15:10:00,
2013-03-10 11:25:00,74.5,57.3,29.99,SSE,157,3.7,-999.0,55,-99.99,,,0.00,Acu-Link.com,2013-03-10 15:25:00,
2013-03-10 11:40:00,76.6,57.6,29.98,SW,225,3.2,-999.0,52,-99.99,,,0.00,Acu-Link.com,2013-03-10 15:40:00,
2013-03-10 11:55:00,76.1,57.7,29.97,WSW,247,4.2,-999.0,53,-99.99,,,0.00,Acu-Link.com,2013-03-10 15:55:00,
2013-03-10 12:11:00,75.9,56.5,29.95,SSW,202,2.7,-999.0,51,-99.99,,,0.00,Acu-Link.com,2013-03-10 16:11:00,
2013-03-10 12:26:00,76.3,56.8,29.95,ESE,112,5.3,-999.0,51,-99.99,,,0.00,Acu-Link.com,2013-03-10 16:26:00,
2013-03-10 12:41:00,76.6,57.6,29.93,SE,135,5.8,-999.0,52,-99.99,,,0.00,Acu-Link.com,2013-03-10 16:41:00,
2013-03-10 12:56:00,78.1,56.2,29.92,SSE,157,7.3,-999.0,47,-99.99,,,0.00,Acu-Link.com,2013-03-10 16:56:00,
2013-03-10 13:11:00,77.0,55.2,29.92,ENE,67,4.7,-999.0,47,-99.99,,,0.00,Acu-Link.com,2013-03-10 17:11:00,
2013-03-10 13:26:00,76.3,55.7,29.92,ESE,112,6.8,-999.0,49,-99.99,,,0.00,Acu-Link.com,2013-03-10 17:26:00,
2013-03-10 13:42:00,79.5,56.3,29.91,SW,225,6.8,-999.0,45,-99.99,,,0.00,Acu-Link.com,2013-03-10 17:42:00,
2013-03-10 13:57:00,77.0,55.2,29.91,West,270,3.2,-999.0,47,-99.99,,,0.00,Acu-Link.com,2013-03-10 17:57:00,
2013-03-10 14:12:00,79.7,55.2,29.89,ESE,112,7.8,-999.0,43,-99.99,,,0.00,Acu-Link.com,2013-03-10 18:12:00,
2013-03-10 14:27:00,79.3,55.5,29.89,ENE,67,4.7,-999.0,44,-99.99,,,0.00,Acu-Link.com,2013-03-10 18:27:00,
2013-03-10 14:43:00,77.5,55.1,29.88,East,90,3.7,-999.0,46,-99.99,,,0.00,Acu-Link.com,2013-03-10 18:43:00,
2013-03-10 14:58:00,79.9,56.6,29.87,SSW,202,6.8,-999.0,45,-99.99,,,0.00,Acu-Link.com,2013-03-10 18:58:00,
2013-03-10 15:13:00,80.1,54.9,29.87,West,270,4.2,-999.0,42,-99.99,,,0.00,Acu-Link.com,2013-03-10 19:13:00,
2013-03-10 15:28:00,79.5,55.7,29.87,East,90,3.7,-999.0,44,-99.99,,,0.00,Acu-Link.com,2013-03-10 19:28:00,
2013-03-10 15:43:00,77.9,56.0,29.86,South,180,3.2,-999.0,47,-99.99,,,0.00,Acu-Link.com,2013-03-10 19:43:00,
2013-03-10 15:59:00,77.9,56.0,29.86,ESE,112,2.7,-999.0,47,-99.99,,,0.00,Acu-Link.com,2013-03-10 19:59:00,
2013-03-10 16:14:00,78.1,55.6,29.85,NE,45,4.2,-999.0,46,-99.99,,,0.00,Acu-Link.com,2013-03-10 20:14:00,
2013-03-10 16:29:00,79.0,55.8,29.85,East,90,6.8,-999.0,45,-99.99,,,0.00,Acu-Link.com,2013-03-10 20:29:00,
2013-03-10 16:45:00,78.1,55.0,29.85,East,90,2.2,-999.0,45,-99.99,,,0.00,Acu-Link.com,2013-03-10 20:45:00,
2013-03-10 17:00:00,79.0,55.8,29.84,East,90,6.3,-999.0,45,-99.99,,,0.00,Acu-Link.com,2013-03-10 21:00:00,
2013-03-10 17:15:00,77.7,55.3,29.84,SSE,157,3.2,-999.0,46,-99.99,,,0.00,Acu-Link.com,2013-03-10 21:15:00,
2013-03-10 17:31:00,77.7,55.3,29.84,North,0,5.3,-999.0,46,-99.99,,,0.00,Acu-Link.com,2013-03-10 21:31:00,
2013-03-10 17:46:00,77.0,55.2,29.84,SW,225,2.2,-999.0,47,-99.99,,,0.00,Acu-Link.com,2013-03-10 21:46:00,
2013-03-10 18:32:00,74.5,55.7,29.84,ESE,112,3.7,-999.0,52,-99.99,,,0.00,Acu-Link.com,2013-03-10 22:32:00,
2013-03-10 18:47:00,73.4,55.2,29.85,SSE,157,3.2,-999.0,53,-99.99,,,0.00,Acu-Link.com,2013-03-10 22:47:00,
2013-03-10 19:02:00,72.7,56.1,29.86,South,180,3.2,-999.0,56,-99.99,,,0.00,Acu-Link.com,2013-03-10 23:02:00,
2013-03-10 19:17:00,70.9,55.4,29.86,ENE,67,5.3,-999.0,58,-99.99,,,0.00,Acu-Link.com,2013-03-10 23:17:00,
2013-03-10 19:32:00,70.0,55.5,29.86,SSW,202,2.2,-999.0,60,-99.99,,,0.00,Acu-Link.com,2013-03-10 23:32:00,
2013-03-10 19:47:00,69.1,55.1,29.87,NNE,22,1.7,-999.0,61,-99.99,,,0.00,Acu-Link.com,2013-03-10 23:47:00,
2013-03-10 20:03:00,68.4,55.3,29.88,ESE,112,1.7,-999.0,63,-99.99,,,0.00,Acu-Link.com,2013-03-11 00:03:00,
2013-03-10 20:18:00,67.6,55.4,29.88,ESE,112,1.7,-999.0,65,-99.99,,,0.00,Acu-Link.com,2013-03-11 00:18:00,
2013-03-10 20:33:00,66.9,55.2,29.89,East,90,1.1,-999.0,66,-99.99,,,0.00,Acu-Link.com,2013-03-11 00:33:00,
2013-03-10 20:49:00,66.2,54.9,29.89,ENE,67,1.7,-999.0,67,-99.99,,,0.00,Acu-Link.com,2013-03-11 00:49:00,
2013-03-10 21:04:00,65.7,54.4,29.90,SE,135,1.7,-999.0,67,-99.99,,,0.00,Acu-Link.com,2013-03-11 01:04:00,
2013-03-10 21:19:00,65.1,54.3,29.90,East,90,1.7,-999.0,68,-99.99,,,0.00,Acu-Link.com,2013-03-11 01:19:00,
2013-03-10 21:34:00,64.6,54.2,29.91,South,180,1.7,-999.0,69,-99.99,,,0.00,Acu-Link.com,2013-03-11 01:34:00,
2013-03-10 21:50:00,64.0,53.6,29.91,ENE,67,2.2,-999.0,69,-99.99,,,0.00,Acu-Link.com,2013-03-11 01:50:00,
2013-03-10 22:05:00,63.7,53.7,29.92,South,180,1.1,-999.0,70,-99.99,,,0.00,Acu-Link.com,2013-03-11 02:05:00,
2013-03-10 22:20:00,64.0,54.0,29.92,ESE,112,1.7,-999.0,70,-99.99,,,0.00,Acu-Link.com,2013-03-11 02:20:00,
2013-03-10 22:35:00,63.3,53.7,29.92,South,180,1.1,-999.0,71,-99.99,,,0.00,Acu-Link.com,2013-03-11 02:35:00,
2013-03-10 22:50:00,62.8,53.6,29.92,West,270,1.1,-999.0,72,-99.99,,,0.00,Acu-Link.com,2013-03-11 02:50:00,
2013-03-10 23:21:00,62.1,53.7,29.92,ESE,112,1.7,-999.0,74,-99.99,,,0.00,Acu-Link.com,2013-03-11 03:21:00,
2013-03-10 23:36:00,61.9,53.9,29.92,SSE,157,0.0,-999.0,75,-99.99,,,0.00,Acu-Link.com,2013-03-11 03:36:00,
2013-03-10 23:52:00,61.3,54.0,29.92,North,0,1.1,-999.0,77,-99.99,,,0.00,Acu-Link.com,2013-03-11 03:52:00,